createdAt,value
2022-10-20T00:06:58.829Z,101099.25
2022-10-20T00:17:01.566Z,101097.28
2022-10-20T00:27:03.374Z,101103.19
2022-10-20T00:37:04.978Z,101114.06
2022-10-20T00:47:11.852Z,101105.22
2022-10-20T00:57:13.688Z,101115.97
2022-10-20T01:07:16.372Z,101124.28
2022-10-20T01:17:31.774Z,101126.78
2022-10-20T01:27:48.883Z,101128.31
2022-10-20T01:38:12.516Z,101122.03
2022-10-20T01:48:18.317Z,101132.28
2022-10-20T01:58:29.580Z,101134.63
2022-10-20T02:09:02.315Z,101124.41
2022-10-20T02:19:07.857Z,101135.22
2022-10-20T02:29:15.874Z,101140.91
2022-10-20T02:39:17.461Z,101142.56
2022-10-20T02:49:20.565Z,101161.19
2022-10-20T02:59:22.313Z,101169.59
2022-10-20T03:09:24.104Z,101170.81
2022-10-20T03:19:25.996Z,101176.09
2022-10-20T03:29:32.850Z,101181.69
2022-10-20T03:39:34.568Z,101184.38
2022-10-20T03:49:36.148Z,101184.38
2022-10-20T03:59:37.857Z,101186.13
2022-10-20T04:09:39.542Z,101186.75
2022-10-20T04:19:41.307Z,101180.00
2022-10-20T04:29:43.011Z,101184.22
2022-10-20T04:39:44.800Z,101174.84
2022-10-20T04:49:46.574Z,101188.09
2022-10-20T04:59:48.235Z,101187.63
2022-10-20T05:09:49.763Z,101207.16
2022-10-20T05:19:52.305Z,101215.78
2022-10-20T05:29:55.160Z,101222.56
2022-10-20T05:39:56.781Z,101254.78
2022-10-20T05:49:58.368Z,101259.34
2022-10-20T05:59:59.914Z,101270.28
2022-10-20T06:10:01.659Z,101274.59
2022-10-20T06:20:03.616Z,101290.47
2022-10-20T06:30:05.832Z,101305.41
2022-10-20T06:40:07.782Z,101315.19
2022-10-20T06:50:09.718Z,101323.38
2022-10-20T07:00:11.724Z,101335.22
2022-10-20T07:10:13.390Z,101332.16
2022-10-20T07:20:15.031Z,101347.78
2022-10-20T07:30:17.916Z,101342.41
2022-10-20T07:50:32.211Z,101334.72
2022-10-20T08:00:33.989Z,101346.94
2022-10-20T08:10:35.616Z,101343.03
2022-10-20T08:20:42.258Z,101353.78
2022-10-20T08:30:44.334Z,101351.97
2022-10-20T08:40:46.007Z,101346.38
2022-10-20T08:50:50.588Z,101347.28
2022-10-20T09:01:01.225Z,101360.13
2022-10-20T09:11:04.820Z,101354.50
2022-10-20T09:21:21.990Z,101358.28
2022-10-20T09:31:33.154Z,101354.75
2022-10-20T09:41:36.094Z,101351.66
2022-10-20T09:51:37.750Z,101351.72
2022-10-20T10:01:56.790Z,101347.72
2022-10-20T10:12:14.365Z,101343.22
2022-10-20T10:22:17.120Z,101321.47
2022-10-20T10:32:23.117Z,101317.31
2022-10-20T10:42:48.683Z,101308.56
2022-10-20T10:53:04.922Z,101292.91
2022-10-20T11:03:12.108Z,101286.88
2022-10-20T11:13:33.927Z,101270.16
2022-10-20T11:23:52.123Z,101255.16
2022-10-20T11:34:17.167Z,101247.16
2022-10-20T11:44:35.114Z,101216.47
2022-10-20T11:55:13.841Z,101225.34
2022-10-20T12:05:21.849Z,101198.13
2022-10-20T12:15:30.890Z,101202.56
2022-10-20T12:25:41.490Z,101209.25
2022-10-20T12:36:07.861Z,101179.09
2022-10-20T12:46:16.165Z,101194.88
2022-10-20T12:56:21.831Z,101153.06
2022-10-20T13:06:30.682Z,101152.03
2022-10-20T13:16:34.094Z,101150.13
2022-10-20T13:26:47.544Z,101160.38
2022-10-20T13:37:01.327Z,101150.91
2022-10-20T13:47:27.118Z,101144.81
2022-10-20T13:57:35.004Z,101127.38
2022-10-20T14:07:43.164Z,101126.69
2022-10-20T14:17:55.781Z,101116.59
2022-10-20T14:27:58.631Z,101127.50
2022-10-20T14:38:09.962Z,101124.88
2022-10-20T14:48:15.505Z,101126.84
2022-10-20T14:58:47.705Z,101120.69
2022-10-20T15:08:57.882Z,101113.34
2022-10-20T15:19:25.863Z,101112.84
2022-10-20T15:29:27.877Z,101097.41
2022-10-20T15:39:32.731Z,101100.91
2022-10-20T15:49:34.674Z,101093.97
2022-10-20T15:59:36.775Z,101088.75
2022-10-20T16:09:39.519Z,101092.91
2022-10-20T16:19:41.104Z,101104.84
2022-10-20T16:29:45.172Z,101100.28
2022-10-20T16:39:50.250Z,101103.44
2022-10-20T16:50:01.257Z,101122.88
2022-10-20T17:00:04.097Z,101110.53
2022-10-20T17:10:06.952Z,101111.22
2022-10-20T17:20:09.389Z,101108.31
2022-10-20T17:30:12.269Z,101112.31
2022-10-20T17:40:14.527Z,101105.16
2022-10-20T17:50:17.427Z,101106.47
2022-10-20T18:00:26.987Z,101117.34
2022-10-20T18:10:45.872Z,101118.63
2022-10-20T18:20:56.967Z,101110.75
2022-10-20T18:31:12.838Z,101108.13
2022-10-20T18:41:19.463Z,101106.19
2022-10-20T18:51:22.687Z,101110.22
2022-10-20T19:01:30.604Z,101105.41
2022-10-20T19:11:37.592Z,101110.81
2022-10-20T19:21:41.201Z,101110.63
2022-10-20T19:31:49.961Z,101115.44
2022-10-20T19:41:52.932Z,101106.31
2022-10-20T19:51:56.041Z,101114.66
2022-10-20T20:02:12.516Z,101112.09
2022-10-20T20:12:16.231Z,101122.41
2022-10-20T20:22:19.234Z,101123.81
2022-10-20T20:32:20.905Z,101125.25
2022-10-20T20:42:22.699Z,101122.94
2022-10-20T20:52:24.620Z,101114.91
2022-10-20T21:02:26.237Z,101117.28
2022-10-20T21:12:29.648Z,101128.06
2022-10-20T21:22:33.474Z,101107.78
2022-10-20T21:32:35.426Z,101120.59
2022-10-20T21:42:37.708Z,101120.13
2022-10-20T21:52:39.824Z,101114.97
2022-10-20T22:02:42.906Z,101109.03
2022-10-20T22:12:44.511Z,101107.53
2022-10-20T22:22:48.191Z,101110.28
2022-10-20T22:32:50.932Z,101120.75
2022-10-20T22:42:52.853Z,101121.69
2022-10-20T22:52:56.560Z,101120.44
2022-10-20T23:02:58.180Z,101113.16
2022-10-20T23:13:03.876Z,101105.25
2022-10-20T23:23:05.435Z,101083.44
2022-10-20T23:33:07.114Z,101088.00
2022-10-20T23:43:08.810Z,101097.59
2022-10-20T23:53:34.185Z,101097.41
